WAT4329 PANC-KLAX
Flight info
| Callsign | WAT4329 |
|---|---|
| Flight time | N/A |
| Altitude | 35000 |
| Route | ANC TED J804R MDO SAYNT 52N137W 50N135W 46N130W HEMLO/N0490F370 BOXER FOT ENI J143 PYE J501 BSR MCKEY LEENA8 |
| Aircraft | B748/H-SDE3FGHIM1M2RWXY/LB1 |
Departure
| Time | 2026-05-01 14:36 |
|---|---|
| Airport | Ted Stevens Anchorage International Airport (PANC) |
Arrival
| Time | N/A |
|---|---|
| Airport | Los Angeles International Airport (KLAX) |
| Time | Latitude | Longitude | Altitude | Speed | Heading |
|---|---|---|---|---|---|
| 2026-05-01 14:02 | 61.18927 | -150.00238 | 164 ft | 0 kts | 254° |
| 2026-05-01 14:23 | 61.18929 | -150.00217 | 164 ft | 2 kts | 254° |
| 2026-05-01 14:23 | 61.18933 | -150.00188 | 164 ft | 2 kts | 254° |
| 2026-05-01 14:23 | 61.18936 | -150.00168 | 164 ft | 2 kts | 254° |
| 2026-05-01 14:24 | 61.18942 | -150.00140 | 164 ft | 2 kts | 234° |
| 2026-05-01 14:24 | 61.18952 | -150.00117 | 164 ft | 2 kts | 218° |
| 2026-05-01 14:24 | 61.18965 | -150.00101 | 164 ft | 2 kts | 201° |
| 2026-05-01 14:24 | 61.18979 | -150.00093 | 164 ft | 2 kts | 185° |
| 2026-05-01 14:25 | 61.18995 | -150.00095 | 164 ft | 2 kts | 168° |
| 2026-05-01 14:25 | 61.19001 | -150.00098 | 164 ft | 1 kts | 163° |
| 2026-05-01 14:28 | 61.18825 | -149.99999 | 164 ft | 17 kts | 165° |
| 2026-05-01 14:28 | 61.18747 | -149.99966 | 164 ft | 2 kts | 198° |
| 2026-05-01 14:28 | 61.18742 | -149.99973 | 164 ft | 5 kts | 207° |
| 2026-05-01 14:28 | 61.18721 | -150.00072 | 164 ft | 9 kts | 258° |
| 2026-05-01 14:29 | 61.18708 | -150.00192 | 164 ft | 7 kts | 256° |
| 2026-05-01 14:29 | 61.18688 | -150.00319 | 164 ft | 11 kts | 238° |
| 2026-05-01 14:30 | 61.18277 | -150.00146 | 164 ft | 23 kts | 164° |
| 2026-05-01 14:30 | 61.18134 | -150.00067 | 164 ft | 19 kts | 165° |
| 2026-05-01 14:30 | 61.18019 | -150.00001 | 164 ft | 15 kts | 162° |
| 2026-05-01 14:31 | 61.17874 | -149.99911 | 164 ft | 6 kts | 163° |
| 2026-05-01 14:31 | 61.17839 | -149.99892 | 164 ft | 5 kts | 165° |
| 2026-05-01 14:31 | 61.17788 | -149.99864 | 164 ft | 11 kts | 165° |
| 2026-05-01 14:31 | 61.17655 | -149.99793 | 164 ft | 24 kts | 165° |
| 2026-05-01 14:32 | 61.17500 | -149.99701 | 164 ft | 21 kts | 165° |
| 2026-05-01 14:32 | 61.17370 | -149.99629 | 164 ft | 17 kts | 165° |
| 2026-05-01 14:32 | 61.17269 | -149.99571 | 164 ft | 13 kts | 164° |
| 2026-05-01 14:32 | 61.17196 | -149.99528 | 164 ft | 9 kts | 164° |
| 2026-05-01 14:33 | 61.17143 | -149.99519 | 164 ft | 6 kts | 214° |
| 2026-05-01 14:33 | 61.17128 | -149.99615 | 164 ft | 12 kts | 268° |
| 2026-05-01 14:33 | 61.17127 | -149.99937 | 164 ft | 28 kts | 270° |
| 2026-05-01 14:33 | 61.17126 | -150.00333 | 164 ft | 25 kts | 269° |
| 2026-05-01 14:34 | 61.17125 | -150.00671 | 164 ft | 20 kts | 270° |
| 2026-05-01 14:34 | 61.17062 | -150.00795 | 164 ft | 11 kts | 179° |
| 2026-05-01 14:34 | 61.16996 | -150.00792 | 164 ft | 5 kts | 165° |
| 2026-05-01 14:34 | 61.16977 | -150.00738 | 164 ft | 5 kts | 95° |
| 2026-05-01 14:35 | 61.16977 | -150.00717 | 164 ft | 3 kts | 90° |
| 2026-05-01 14:35 | 61.16977 | -150.00212 | 164 ft | 73 kts | 90° |
| 2026-05-01 14:35 | 61.16978 | -149.98573 | 165 ft | 154 kts | 89° |
| 2026-05-01 14:35 | 61.17005 | -149.96010 | 574 ft | 187 kts | 86° |
| 2026-05-01 14:36 | 61.17052 | -149.93602 | 1576 ft | 162 kts | 94° |
| 2026-05-01 14:36 | 61.17001 | -149.91231 | 2170 ft | 163 kts | 94° |
| 2026-05-01 14:36 | 61.16905 | -149.88924 | 2518 ft | 167 kts | 94° |
| 2026-05-01 14:36 | 61.16610 | -149.86552 | 2651 ft | 183 kts | 116° |
| 2026-05-01 14:37 | 61.15702 | -149.84418 | 2671 ft | 215 kts | 134° |
| 2026-05-01 14:37 | 61.14445 | -149.82457 | 2999 ft | 234 kts | 145° |
| 2026-05-01 14:37 | 61.12875 | -149.81430 | 3621 ft | 247 kts | 167° |
| 2026-05-01 14:37 | 61.11152 | -149.81795 | 4383 ft | 255 kts | 188° |
| 2026-05-01 14:38 | 61.09510 | -149.83131 | 5056 ft | 258 kts | 193° |
| 2026-05-01 14:38 | 61.07870 | -149.84679 | 5661 ft | 258 kts | 191° |
| 2026-05-01 14:38 | 61.06194 | -149.85445 | 6159 ft | 242 kts | 167° |
| 2026-05-01 14:38 | 61.04616 | -149.84828 | 6715 ft | 224 kts | 146° |
| 2026-05-01 14:39 | 61.03418 | -149.83040 | 7274 ft | 214 kts | 127° |
| 2026-05-01 14:39 | 61.02728 | -149.80342 | 7757 ft | 218 kts | 108° |
| 2026-05-01 14:39 | 61.02464 | -149.77220 | 8099 ft | 228 kts | 106° |
| 2026-05-01 14:39 | 61.02096 | -149.73993 | 8456 ft | 231 kts | 112° |
| 2026-05-01 14:40 | 61.01561 | -149.70857 | 8858 ft | 234 kts | 116° |
| 2026-05-01 14:40 | 61.00938 | -149.67781 | 9257 ft | 237 kts | 120° |
| 2026-05-01 14:40 | 61.00212 | -149.64716 | 9659 ft | 239 kts | 123° |
| 2026-05-01 14:40 | 60.99403 | -149.61737 | 10071 ft | 240 kts | 127° |
| 2026-05-01 14:41 | 60.98528 | -149.58847 | 10468 ft | 242 kts | 129° |
| 2026-05-01 14:41 | 60.97581 | -149.55966 | 10778 ft | 246 kts | 131° |
| 2026-05-01 14:41 | 60.96549 | -149.53087 | 11011 ft | 254 kts | 133° |
| 2026-05-01 14:41 | 60.95459 | -149.50189 | 11176 ft | 264 kts | 133° |
| 2026-05-01 14:42 | 60.94279 | -149.47195 | 11291 ft | 274 kts | 134° |
| 2026-05-01 14:42 | 60.93035 | -149.44170 | 11647 ft | 277 kts | 135° |
| 2026-05-01 14:42 | 60.91790 | -149.41183 | 12034 ft | 278 kts | 135° |
| 2026-05-01 14:42 | 60.90529 | -149.38197 | 12321 ft | 282 kts | 136° |
| 2026-05-01 14:43 | 60.89217 | -149.35169 | 12709 ft | 284 kts | 136° |
| 2026-05-01 14:43 | 60.87899 | -149.32175 | 13043 ft | 287 kts | 137° |
| 2026-05-01 14:43 | 60.86545 | -149.29132 | 13381 ft | 290 kts | 138° |